sensor_id;sensor_type;location;lat;lon;timestamp;pressure;altitude;pressure_sealevel;temperature;humidity
5753;BME280;2901;42.140;24.760;2023-05-24T00:01:46;99171.13;;;16.22;100.00
5753;BME280;2901;42.140;24.760;2023-05-24T00:04:12;99173.09;;;16.15;100.00
5753;BME280;2901;42.140;24.760;2023-05-24T00:06:39;99168.25;;;16.04;100.00
5753;BME280;2901;42.140;24.760;2023-05-24T00:09:06;99169.19;;;16.02;100.00
5753;BME280;2901;42.140;24.760;2023-05-24T00:11:31;99160.69;;;15.97;100.00
5753;BME280;2901;42.140;24.760;2023-05-24T00:13:57;99154.53;;;15.98;100.00
5753;BME280;2901;42.140;24.760;2023-05-24T00:16:23;99162.66;;;15.90;100.00
5753;BME280;2901;42.140;24.760;2023-05-24T00:18:48;99160.03;;;15.90;100.00
5753;BME280;2901;42.140;24.760;2023-05-24T00:21:14;99176.34;;;15.97;100.00
5753;BME280;2901;42.140;24.760;2023-05-24T00:23:40;99159.94;;;15.93;100.00
5753;BME280;2901;42.140;24.760;2023-05-24T00:26:07;99160.75;;;15.94;100.00
5753;BME280;2901;42.140;24.760;2023-05-24T00:28:33;99171.94;;;15.99;100.00
5753;BME280;2901;42.140;24.760;2023-05-24T00:30:59;99169.31;;;15.99;100.00
5753;BME280;2901;42.140;24.760;2023-05-24T00:33:24;99164.22;;;15.94;100.00
5753;BME280;2901;42.140;24.760;2023-05-24T00:35:50;99158.31;;;15.89;100.00
5753;BME280;2901;42.140;24.760;2023-05-24T00:38:24;99159.19;;;15.90;100.00
5753;BME280;2901;42.140;24.760;2023-05-24T00:40:50;99164.63;;;15.84;100.00
5753;BME280;2901;42.140;24.760;2023-05-24T00:43:16;99164.69;;;15.81;100.00
5753;BME280;2901;42.140;24.760;2023-05-24T00:45:42;99150.25;;;15.71;100.00
5753;BME280;2901;42.140;24.760;2023-05-24T00:48:08;99149.59;;;15.64;100.00
5753;BME280;2901;42.140;24.760;2023-05-24T00:50:35;99147.81;;;15.65;100.00
5753;BME280;2901;42.140;24.760;2023-05-24T00:53:01;99149.53;;;15.66;100.00
5753;BME280;2901;42.140;24.760;2023-05-24T00:55:28;99147.81;;;15.65;100.00
5753;BME280;2901;42.140;24.760;2023-05-24T00:57:56;99143.72;;;15.57;100.00
5753;BME280;2901;42.140;24.760;2023-05-24T01:00:22;99141.84;;;15.61;100.00
5753;BME280;2901;42.140;24.760;2023-05-24T01:02:48;99141.06;;;15.59;100.00
5753;BME280;2901;42.140;24.760;2023-05-24T01:05:15;99142.69;;;15.62;100.00
5753;BME280;2901;42.140;24.760;2023-05-24T01:18:56;99124.09;;;15.44;100.00
5753;BME280;2901;42.140;24.760;2023-05-24T01:24:55;99131.56;;;15.29;100.00
5753;BME280;2901;42.140;24.760;2023-05-24T01:27:24;99122.88;;;15.28;100.00
5753;BME280;2901;42.140;24.760;2023-05-24T01:29:50;99119.59;;;15.22;100.00
5753;BME280;2901;42.140;24.760;2023-05-24T01:32:20;99127.72;;;15.13;100.00
5753;BME280;2901;42.140;24.760;2023-05-24T01:34:45;99127.81;;;15.10;100.00
5753;BME280;2901;42.140;24.760;2023-05-24T01:37:11;99131.28;;;15.10;100.00
5753;BME280;2901;42.140;24.760;2023-05-24T01:39:36;99128.66;;;15.10;100.00
5753;BME280;2901;42.140;24.760;2023-05-24T01:42:10;99133.00;;;15.11;100.00
5753;BME280;2901;42.140;24.760;2023-05-24T01:44:46;99123.44;;;15.10;100.00
5753;BME280;2901;42.140;24.760;2023-05-24T01:50:09;99126.84;;;15.12;100.00
5753;BME280;2901;42.140;24.760;2023-05-24T01:52:36;99121.72;;;15.09;100.00
5753;BME280;2901;42.140;24.760;2023-05-24T01:55:03;99119.97;;;15.11;100.00
5753;BME280;2901;42.140;24.760;2023-05-24T01:57:33;99131.19;;;15.13;100.00
5753;BME280;2901;42.140;24.760;2023-05-24T01:59:59;99145.00;;;15.15;100.00
5753;BME280;2901;42.140;24.760;2023-05-24T02:02:26;99140.63;;;15.17;100.00
5753;BME280;2901;42.140;24.760;2023-05-24T02:04:51;99148.53;;;15.14;100.00
5753;BME280;2901;42.140;24.760;2023-05-24T02:07:17;99149.25;;;15.19;100.00
5753;BME280;2901;42.140;24.760;2023-05-24T02:09:43;99153.41;;;15.25;100.00
5753;BME280;2901;42.140;24.760;2023-05-24T02:12:09;99155.88;;;15.29;100.00
5753;BME280;2901;42.140;24.760;2023-05-24T02:14:34;99166.22;;;15.32;100.00
5753;BME280;2901;42.140;24.760;2023-05-24T02:17:02;99172.34;;;15.31;100.00
5753;BME280;2901;42.140;24.760;2023-05-24T02:19:27;99167.94;;;15.33;100.00
5753;BME280;2901;42.140;24.760;2023-05-24T02:21:53;99167.75;;;15.39;100.00
5753;BME280;2901;42.140;24.760;2023-05-24T02:24:18;99170.25;;;15.42;100.00
5753;BME280;2901;42.140;24.760;2023-05-24T02:26:44;99168.53;;;15.41;100.00
5753;BME280;2901;42.140;24.760;2023-05-24T02:29:09;99170.44;;;15.36;100.00
5753;BME280;2901;42.140;24.760;2023-05-24T02:31:35;99167.28;;;15.27;100.00
5753;BME280;2901;42.140;24.760;2023-05-24T02:34:01;99177.56;;;15.31;100.00
5753;BME280;2901;42.140;24.760;2023-05-24T02:36:26;99174.25;;;15.26;100.00
5753;BME280;2901;42.140;24.760;2023-05-24T02:38:52;99186.53;;;15.23;100.00
5753;BME280;2901;42.140;24.760;2023-05-24T02:41:18;99183.06;;;15.22;100.00
5753;BME280;2901;42.140;24.760;2023-05-24T02:43:47;99189.13;;;15.23;100.00
5753;BME280;2901;42.140;24.760;2023-05-24T02:46:13;99188.91;;;15.30;100.00
5753;BME280;2901;42.140;24.760;2023-05-24T02:48:38;99196.84;;;15.26;100.00
5753;BME280;2901;42.140;24.760;2023-05-24T02:51:04;99195.91;;;15.28;100.00
5753;BME280;2901;42.140;24.760;2023-05-24T02:53:30;99196.78;;;15.29;100.00
5753;BME280;2901;42.140;24.760;2023-05-24T02:55:56;99192.72;;;15.19;100.00
5753;BME280;2901;42.140;24.760;2023-05-24T02:58:22;99188.47;;;15.16;100.00
5753;BME280;2901;42.140;24.760;2023-05-24T03:00:48;99190.19;;;15.17;100.00
5753;BME280;2901;42.140;24.760;2023-05-24T03:03:13;99191.25;;;15.10;100.00
5753;BME280;2901;42.140;24.760;2023-05-24T03:05:39;99189.72;;;15.03;100.00
5753;BME280;2901;42.140;24.760;2023-05-24T03:08:04;99195.63;;;15.10;100.00
5753;BME280;2901;42.140;24.760;2023-05-24T03:10:30;99192.78;;;15.17;100.00
5753;BME280;2901;42.140;24.760;2023-05-24T03:12:56;99195.16;;;15.25;100.00
5753;BME280;2901;42.140;24.760;2023-05-24T03:15:21;99189.09;;;15.24;100.00
5753;BME280;2901;42.140;24.760;2023-05-24T03:17:47;99192.22;;;15.35;100.00
5753;BME280;2901;42.140;24.760;2023-05-24T03:20:12;99181.88;;;15.32;100.00
5753;BME280;2901;42.140;24.760;2023-05-24T03:22:37;99194.03;;;15.33;100.00
5753;BME280;2901;42.140;24.760;2023-05-24T03:25:03;99189.69;;;15.32;100.00
5753;BME280;2901;42.140;24.760;2023-05-24T03:27:29;99191.53;;;15.30;100.00
5753;BME280;2901;42.140;24.760;2023-05-24T03:29:54;99188.81;;;15.33;100.00
5753;BME280;2901;42.140;24.760;2023-05-24T03:32:20;99185.13;;;15.40;100.00
5753;BME280;2901;42.140;24.760;2023-05-24T03:34:45;99192.84;;;15.43;100.00
5753;BME280;2901;42.140;24.760;2023-05-24T03:37:10;99195.28;;;15.49;100.00
5753;BME280;2901;42.140;24.760;2023-05-24T03:39:36;99199.63;;;15.50;100.00
5753;BME280;2901;42.140;24.760;2023-05-24T03:42:01;99191.78;;;15.50;100.00
5753;BME280;2901;42.140;24.760;2023-05-24T03:44:26;99183.09;;;15.50;100.00
5753;BME280;2901;42.140;24.760;2023-05-24T03:46:52;99190.59;;;15.61;100.00
5753;BME280;2901;42.140;24.760;2023-05-24T03:49:17;99184.25;;;15.68;100.00
5753;BME280;2901;42.140;24.760;2023-05-24T03:51:43;99185.66;;;15.78;100.00
5753;BME280;2901;42.140;24.760;2023-05-24T03:54:08;99187.94;;;15.88;100.00
5753;BME280;2901;42.140;24.760;2023-05-24T03:56:33;99190.19;;;15.99;100.00
5753;BME280;2901;42.140;24.760;2023-05-24T03:58:59;99188.28;;;16.04;100.00
5753;BME280;2901;42.140;24.760;2023-05-24T04:01:28;99191.53;;;16.10;100.00
5753;BME280;2901;42.140;24.760;2023-05-24T04:03:56;99188.69;;;16.18;100.00
5753;BME280;2901;42.140;24.760;2023-05-24T04:06:21;99190.22;;;16.24;100.00
5753;BME280;2901;42.140;24.760;2023-05-24T04:08:58;99190.66;;;16.36;100.00
5753;BME280;2901;42.140;24.760;2023-05-24T04:11:24;99194.56;;;16.49;100.00
5753;BME280;2901;42.140;24.760;2023-05-24T04:13:56;99174.88;;;16.39;100.00
5753;BME280;2901;42.140;24.760;2023-05-24T04:16:22;99194.72;;;16.45;100.00
5753;BME280;2901;42.140;24.760;2023-05-24T04:18:49;99192.78;;;16.50;100.00
5753;BME280;2901;42.140;24.760;2023-05-24T04:21:15;99183.50;;;16.41;100.00
5753;BME280;2901;42.140;24.760;2023-05-24T04:23:40;99186.84;;;16.46;100.00
5753;BME280;2901;42.140;24.760;2023-05-24T04:26:06;99197.78;;;16.57;100.00
5753;BME280;2901;42.140;24.760;2023-05-24T04:28:32;99195.16;;;16.57;100.00
5753;BME280;2901;42.140;24.760;2023-05-24T04:30:58;99199.38;;;16.62;99.50
5753;BME280;2901;42.140;24.760;2023-05-24T04:33:23;99199.28;;;16.65;98.78
5753;BME280;2901;42.140;24.760;2023-05-24T04:35:49;99194.06;;;16.63;98.46
5753;BME280;2901;42.140;24.760;2023-05-24T04:38:14;99187.81;;;16.69;98.19
5753;BME280;2901;42.140;24.760;2023-05-24T04:40:40;99186.94;;;16.68;97.42
5753;BME280;2901;42.140;24.760;2023-05-24T04:43:05;99192.97;;;16.70;97.15
5753;BME280;2901;42.140;24.760;2023-05-24T04:45:32;99177.34;;;16.69;97.48
5753;BME280;2901;42.140;24.760;2023-05-24T04:47:58;99182.69;;;16.66;97.55
5753;BME280;2901;42.140;24.760;2023-05-24T04:50:23;99184.84;;;16.78;98.04
5753;BME280;2901;42.140;24.760;2023-05-24T04:52:49;99186.88;;;16.93;97.66
5753;BME280;2901;42.140;24.760;2023-05-24T04:55:15;99203.13;;;17.02;95.19
5753;BME280;2901;42.140;24.760;2023-05-24T04:57:40;99201.00;;;17.12;95.11
5753;BME280;2901;42.140;24.760;2023-05-24T05:00:06;99188.53;;;17.19;94.70
5753;BME280;2901;42.140;24.760;2023-05-24T05:02:32;99196.91;;;17.28;94.02
5753;BME280;2901;42.140;24.760;2023-05-24T05:04:57;99201.06;;;17.32;93.65
5753;BME280;2901;42.140;24.760;2023-05-24T05:07:23;99205.28;;;17.36;94.01
5753;BME280;2901;42.140;24.760;2023-05-24T05:09:48;99211.88;;;17.46;93.40
5753;BME280;2901;42.140;24.760;2023-05-24T05:12:13;99219.44;;;17.54;92.42
5753;BME280;2901;42.140;24.760;2023-05-24T05:14:39;99221.09;;;17.56;92.42
5753;BME280;2901;42.140;24.760;2023-05-24T05:17:04;99211.97;;;17.67;92.48
5753;BME280;2901;42.140;24.760;2023-05-24T05:19:30;99224.53;;;17.80;92.58
5753;BME280;2901;42.140;24.760;2023-05-24T05:21:55;99220.06;;;17.82;92.55
5753;BME280;2901;42.140;24.760;2023-05-24T05:24:20;99216.28;;;17.89;92.36
5753;BME280;2901;42.140;24.760;2023-05-24T05:26:46;99222.44;;;17.88;91.21
5753;BME280;2901;42.140;24.760;2023-05-24T05:29:11;99212.78;;;17.90;92.05
5753;BME280;2901;42.140;24.760;2023-05-24T05:31:37;99225.25;;;17.84;92.44
5753;BME280;2901;42.140;24.760;2023-05-24T05:34:04;99222.63;;;17.84;91.35
5753;BME280;2901;42.140;24.760;2023-05-24T05:36:33;99229.22;;;17.94;92.76
5753;BME280;2901;42.140;24.760;2023-05-24T05:39:04;99231.31;;;18.06;92.81
5753;BME280;2901;42.140;24.760;2023-05-24T05:41:30;99223.41;;;18.07;92.02
5753;BME280;2901;42.140;24.760;2023-05-24T05:43:55;99227.66;;;18.10;92.81
5753;BME280;2901;42.140;24.760;2023-05-24T05:46:20;99219.59;;;18.14;92.16
5753;BME280;2901;42.140;24.760;2023-05-24T05:48:46;99213.00;;;18.26;92.64
5753;BME280;2901;42.140;24.760;2023-05-24T05:51:12;99214.97;;;18.41;92.67
5753;BME280;2901;42.140;24.760;2023-05-24T05:53:38;99219.03;;;18.50;91.51
5753;BME280;2901;42.140;24.760;2023-05-24T05:56:03;99222.16;;;18.58;91.92
5753;BME280;2901;42.140;24.760;2023-05-24T05:58:29;99224.13;;;18.73;91.51
5753;BME280;2901;42.140;24.760;2023-05-24T06:00:54;99220.22;;;18.82;91.20
5753;BME280;2901;42.140;24.760;2023-05-24T06:03:20;99220.75;;;18.90;90.75
5753;BME280;2901;42.140;24.760;2023-05-24T06:05:45;99232.25;;;19.06;90.80
5753;BME280;2901;42.140;24.760;2023-05-24T06:08:10;99238.53;;;19.22;89.60
5753;BME280;2901;42.140;24.760;2023-05-24T06:10:36;99239.44;;;19.40;89.23
5753;BME280;2901;42.140;24.760;2023-05-24T06:13:02;99235.47;;;19.50;87.14
5753;BME280;2901;42.140;24.760;2023-05-24T06:15:28;99230.75;;;19.58;87.89
5753;BME280;2901;42.140;24.760;2023-05-24T06:17:53;99236.91;;;19.76;88.89
5753;BME280;2901;42.140;24.760;2023-05-24T06:20:19;99235.75;;;19.81;88.52
5753;BME280;2901;42.140;24.760;2023-05-24T06:22:44;99237.88;;;19.92;88.76
5753;BME280;2901;42.140;24.760;2023-05-24T06:25:10;99240.56;;;19.90;88.62
5753;BME280;2901;42.140;24.760;2023-05-24T06:27:38;99239.69;;;19.90;88.08
5753;BME280;2901;42.140;24.760;2023-05-24T06:30:05;99239.63;;;19.91;87.11
5753;BME280;2901;42.140;24.760;2023-05-24T06:32:31;99248.94;;;19.98;87.87
5753;BME280;2901;42.140;24.760;2023-05-24T06:34:56;99249.53;;;20.03;87.54
5753;BME280;2901;42.140;24.760;2023-05-24T06:37:21;99247.25;;;20.14;86.05
5753;BME280;2901;42.140;24.760;2023-05-24T06:39:49;99239.91;;;20.21;85.21
5753;BME280;2901;42.140;24.760;2023-05-24T06:42:15;99237.53;;;20.34;86.04
5753;BME280;2901;42.140;24.760;2023-05-24T06:44:40;99255.72;;;20.55;85.44
5753;BME280;2901;42.140;24.760;2023-05-24T06:47:05;99254.31;;;20.48;83.72
5753;BME280;2901;42.140;24.760;2023-05-24T06:49:31;99252.69;;;20.46;84.06
5753;BME280;2901;42.140;24.760;2023-05-24T06:51:56;99250.72;;;20.51;84.33
5753;BME280;2901;42.140;24.760;2023-05-24T06:54:22;99244.59;;;20.67;82.39
5753;BME280;2901;42.140;24.760;2023-05-24T06:56:47;99245.34;;;20.69;82.24
5753;BME280;2901;42.140;24.760;2023-05-24T06:59:12;99246.03;;;20.73;81.57
5753;BME280;2901;42.140;24.760;2023-05-24T07:01:38;99243.00;;;20.81;81.96
5753;BME280;2901;42.140;24.760;2023-05-24T07:04:07;99242.19;;;20.96;82.04
5753;BME280;2901;42.140;24.760;2023-05-24T07:06:32;99234.47;;;21.10;81.70
5753;BME280;2901;42.140;24.760;2023-05-24T07:08:58;99228.69;;;21.19;80.81
5753;BME280;2901;42.140;24.760;2023-05-24T07:11:23;99233.03;;;21.20;80.78
5753;BME280;2901;42.140;24.760;2023-05-24T07:13:49;99228.34;;;21.25;79.11
5753;BME280;2901;42.140;24.760;2023-05-24T07:16:14;99226.06;;;21.35;79.32
5753;BME280;2901;42.140;24.760;2023-05-24T07:18:40;99228.56;;;21.53;78.69
5753;BME280;2901;42.140;24.760;2023-05-24T07:21:05;99221.19;;;21.60;77.46
5753;BME280;2901;42.140;24.760;2023-05-24T07:23:31;99225.66;;;21.73;77.39
5753;BME280;2901;42.140;24.760;2023-05-24T07:25:56;99224.13;;;21.85;77.33
5753;BME280;2901;42.140;24.760;2023-05-24T07:28:22;99224.88;;;21.87;77.68
5753;BME280;2901;42.140;24.760;2023-05-24T07:30:47;99222.41;;;22.00;78.04
5753;BME280;2901;42.140;24.760;2023-05-24T07:33:13;99227.56;;;22.17;77.67
5753;BME280;2901;42.140;24.760;2023-05-24T07:35:38;99227.38;;;22.20;76.58
5753;BME280;2901;42.140;24.760;2023-05-24T07:38:04;99228.06;;;22.23;76.76
5753;BME280;2901;42.140;24.760;2023-05-24T07:40:29;99223.28;;;22.30;75.96
5753;BME280;2901;42.140;24.760;2023-05-24T07:42:55;99221.84;;;22.54;75.77
5753;BME280;2901;42.140;24.760;2023-05-24T07:45:20;99222.72;;;22.69;74.66
5753;BME280;2901;42.140;24.760;2023-05-24T07:47:46;99219.06;;;22.86;75.28
5753;BME280;2901;42.140;24.760;2023-05-24T07:50:11;99225.78;;;23.05;74.18
5753;BME280;2901;42.140;24.760;2023-05-24T07:52:36;99226.16;;;23.13;73.08
5753;BME280;2901;42.140;24.760;2023-05-24T07:55:03;99224.19;;;23.03;72.42
5753;BME280;2901;42.140;24.760;2023-05-24T07:57:29;99217.09;;;22.89;72.69
5753;BME280;2901;42.140;24.760;2023-05-24T07:59:54;99209.75;;;23.08;71.62
5753;BME280;2901;42.140;24.760;2023-05-24T08:02:20;99223.41;;;23.29;71.02
5753;BME280;2901;42.140;24.760;2023-05-24T08:04:45;99212.13;;;23.41;68.62
5753;BME280;2901;42.140;24.760;2023-05-24T08:07:11;99228.41;;;23.34;68.37
5753;BME280;2901;42.140;24.760;2023-05-24T08:09:36;99226.31;;;23.39;68.12
5753;BME280;2901;42.140;24.760;2023-05-24T08:12:06;99213.50;;;23.47;67.83
5753;BME280;2901;42.140;24.760;2023-05-24T08:14:31;99221.44;;;23.47;66.99
5753;BME280;2901;42.140;24.760;2023-05-24T08:16:57;99212.47;;;23.49;67.01
5753;BME280;2901;42.140;24.760;2023-05-24T08:19:25;99212.88;;;23.70;67.16
5753;BME280;2901;42.140;24.760;2023-05-24T08:21:50;99211.03;;;23.85;64.69
5753;BME280;2901;42.140;24.760;2023-05-24T08:24:16;99213.09;;;23.94;64.41
5753;BME280;2901;42.140;24.760;2023-05-24T08:26:41;99213.34;;;24.03;64.91
5753;BME280;2901;42.140;24.760;2023-05-24T08:29:09;99212.91;;;24.23;63.17
5753;BME280;2901;42.140;24.760;2023-05-24T08:31:34;99221.34;;;24.16;62.75
5753;BME280;2901;42.140;24.760;2023-05-24T08:34:00;99214.38;;;24.27;63.50
5753;BME280;2901;42.140;24.760;2023-05-24T08:36:26;99200.19;;;24.28;62.25
5753;BME280;2901;42.140;24.760;2023-05-24T08:38:52;99212.84;;;24.63;61.21
5753;BME280;2901;42.140;24.760;2023-05-24T08:41:17;99212.84;;;24.75;60.48
5753;BME280;2901;42.140;24.760;2023-05-24T08:43:43;99217.53;;;24.97;60.55
5753;BME280;2901;42.140;24.760;2023-05-24T08:46:09;99217.94;;;25.29;60.13
5753;BME280;2901;42.140;24.760;2023-05-24T08:48:43;99217.31;;;25.49;56.81
5753;BME280;2901;42.140;24.760;2023-05-24T08:51:10;99218.56;;;25.69;56.97
5753;BME280;2901;42.140;24.760;2023-05-24T08:53:37;99217.88;;;25.91;55.47
5753;BME280;2901;42.140;24.760;2023-05-24T08:56:03;99219.19;;;25.85;54.79
5753;BME280;2901;42.140;24.760;2023-05-24T08:58:30;99215.38;;;26.00;54.55
5753;BME280;2901;42.140;24.760;2023-05-24T09:00:57;99213.13;;;26.07;52.69
5753;BME280;2901;42.140;24.760;2023-05-24T09:03:24;99208.63;;;26.20;51.80
5753;BME280;2901;42.140;24.760;2023-05-24T09:05:50;99203.69;;;26.26;52.31
5753;BME280;2901;42.140;24.760;2023-05-24T09:08:17;99209.63;;;26.41;51.30
5753;BME280;2901;42.140;24.760;2023-05-24T09:10:45;99202.84;;;26.61;51.33
5753;BME280;2901;42.140;24.760;2023-05-24T09:13:14;99205.06;;;26.89;50.93
5753;BME280;2901;42.140;24.760;2023-05-24T09:15:39;99205.66;;;27.04;49.82
5753;BME280;2901;42.140;24.760;2023-05-24T09:18:05;99206.16;;;27.09;49.67
5753;BME280;2901;42.140;24.760;2023-05-24T09:20:30;99211.00;;;27.26;48.32
5753;BME280;2901;42.140;24.760;2023-05-24T09:22:56;99209.19;;;27.26;46.55
5753;BME280;2901;42.140;24.760;2023-05-24T09:25:26;99203.13;;;27.24;43.88
5753;BME280;2901;42.140;24.760;2023-05-24T09:27:52;99208.56;;;27.34;43.63
5753;BME280;2901;42.140;24.760;2023-05-24T09:30:18;99202.75;;;27.40;42.67
5753;BME280;2901;42.140;24.760;2023-05-24T09:32:57;99200.97;;;27.52;43.32
5753;BME280;2901;42.140;24.760;2023-05-24T09:35:24;99200.09;;;27.51;42.84
5753;BME280;2901;42.140;24.760;2023-05-24T09:37:53;99196.00;;;27.47;43.35
5753;BME280;2901;42.140;24.760;2023-05-24T09:40:20;99198.53;;;27.49;42.92
5753;BME280;2901;42.140;24.760;2023-05-24T09:42:46;99191.63;;;27.35;42.92
5753;BME280;2901;42.140;24.760;2023-05-24T09:45:15;99194.78;;;27.51;42.70
5753;BME280;2901;42.140;24.760;2023-05-24T09:47:42;99196.59;;;27.62;41.54
5753;BME280;2901;42.140;24.760;2023-05-24T09:50:14;99195.72;;;27.72;42.08
5753;BME280;2901;42.140;24.760;2023-05-24T09:52:41;99198.06;;;27.87;41.51
5753;BME280;2901;42.140;24.760;2023-05-24T09:55:19;99192.38;;;27.91;40.25
5753;BME280;2901;42.140;24.760;2023-05-24T09:58:01;99189.22;;;27.97;39.92
5753;BME280;2901;42.140;24.760;2023-05-24T10:00:27;99190.81;;;27.89;39.44
5753;BME280;2901;42.140;24.760;2023-05-24T10:03:00;99181.41;;;27.84;40.09
5753;BME280;2901;42.140;24.760;2023-05-24T10:05:27;99182.50;;;27.82;39.80
5753;BME280;2901;42.140;24.760;2023-05-24T10:07:54;99186.22;;;27.79;39.77
5753;BME280;2901;42.140;24.760;2023-05-24T10:10:19;99179.59;;;27.85;40.91
5753;BME280;2901;42.140;24.760;2023-05-24T10:12:46;99188.00;;;27.58;40.98
5753;BME280;2901;42.140;24.760;2023-05-24T10:15:11;99182.69;;;27.58;40.18
5753;BME280;2901;42.140;24.760;2023-05-24T10:17:37;99176.78;;;27.44;40.50
5753;BME280;2901;42.140;24.760;2023-05-24T10:20:03;99175.78;;;27.33;41.00
5753;BME280;2901;42.140;24.760;2023-05-24T10:22:31;99177.84;;;27.41;41.16
5753;BME280;2901;42.140;24.760;2023-05-24T10:25:00;99168.63;;;27.67;39.74
5753;BME280;2901;42.140;24.760;2023-05-24T10:27:27;99172.38;;;27.97;40.23
5753;BME280;2901;42.140;24.760;2023-05-24T10:30:13;99168.03;;;28.27;40.05
5753;BME280;2901;42.140;24.760;2023-05-24T10:32:42;99166.78;;;28.52;38.43
5753;BME280;2901;42.140;24.760;2023-05-24T10:35:09;99166.53;;;28.76;38.59
5753;BME280;2901;42.140;24.760;2023-05-24T10:37:36;99164.84;;;28.75;38.79
5753;BME280;2901;42.140;24.760;2023-05-24T10:40:03;99164.88;;;28.54;40.15
5753;BME280;2901;42.140;24.760;2023-05-24T10:42:30;99158.75;;;28.43;39.75
5753;BME280;2901;42.140;24.760;2023-05-24T10:44:56;99154.00;;;28.46;39.83
5753;BME280;2901;42.140;24.760;2023-05-24T10:47:24;99156.34;;;28.40;38.77
5753;BME280;2901;42.140;24.760;2023-05-24T10:49:56;99148.41;;;28.49;39.96
5753;BME280;2901;42.140;24.760;2023-05-24T10:52:35;99143.13;;;28.59;39.78
5753;BME280;2901;42.140;24.760;2023-05-24T10:55:05;99140.63;;;28.78;39.21
5753;BME280;2901;42.140;24.760;2023-05-24T10:57:33;99138.72;;;28.99;37.88
5753;BME280;2901;42.140;24.760;2023-05-24T11:03:01;99130.78;;;28.78;38.44
5753;BME280;2901;42.140;24.760;2023-05-24T11:05:47;99134.59;;;28.85;38.72
5753;BME280;2901;42.140;24.760;2023-05-24T11:08:14;99125.41;;;29.09;35.76
5753;BME280;2901;42.140;24.760;2023-05-24T11:10:39;99128.91;;;29.40;34.75
5753;BME280;2901;42.140;24.760;2023-05-24T11:13:08;99131.78;;;29.67;33.99
5753;BME280;2901;42.140;24.760;2023-05-24T11:15:34;99133.44;;;29.77;32.54
5753;BME280;2901;42.140;24.760;2023-05-24T11:20:34;99125.44;;;29.68;31.65
5753;BME280;2901;42.140;24.760;2023-05-24T11:23:04;99133.72;;;29.55;31.61
5753;BME280;2901;42.140;24.760;2023-05-24T11:25:31;99120.75;;;29.51;32.23
5753;BME280;2901;42.140;24.760;2023-05-24T11:27:57;99126.75;;;29.24;32.73
5753;BME280;2901;42.140;24.760;2023-05-24T11:30:23;99125.69;;;29.06;32.14
5753;BME280;2901;42.140;24.760;2023-05-24T11:32:48;99130.16;;;28.96;33.37
5753;BME280;2901;42.140;24.760;2023-05-24T11:35:14;99128.03;;;28.90;33.22
5753;BME280;2901;42.140;24.760;2023-05-24T11:37:40;99119.91;;;28.91;32.88
5753;BME280;2901;42.140;24.760;2023-05-24T11:40:07;99116.88;;;29.15;32.79
5753;BME280;2901;42.140;24.760;2023-05-24T11:42:36;99118.50;;;28.97;33.60
5753;BME280;2901;42.140;24.760;2023-05-24T11:45:03;99112.56;;;28.83;33.89
5753;BME280;2901;42.140;24.760;2023-05-24T11:47:34;99126.63;;;28.95;34.26
5753;BME280;2901;42.140;24.760;2023-05-24T11:50:00;99119.47;;;29.26;33.72
5753;BME280;2901;42.140;24.760;2023-05-24T11:52:26;99119.78;;;29.32;36.72
5753;BME280;2901;42.140;24.760;2023-05-24T11:54:51;99127.09;;;29.50;36.92
5753;BME280;2901;42.140;24.760;2023-05-24T11:57:28;99103.94;;;29.79;37.19
5753;BME280;2901;42.140;24.760;2023-05-24T11:59:54;99103.28;;;29.87;36.21
5753;BME280;2901;42.140;24.760;2023-05-24T12:02:22;99105.78;;;30.07;36.13
5753;BME280;2901;42.140;24.760;2023-05-24T12:04:47;99091.94;;;30.31;35.64
5753;BME280;2901;42.140;24.760;2023-05-24T12:07:13;99093.41;;;30.72;35.14
5753;BME280;2901;42.140;24.760;2023-05-24T12:09:40;99091.19;;;30.95;34.65
5753;BME280;2901;42.140;24.760;2023-05-24T12:12:06;99081.81;;;31.18;33.91
5753;BME280;2901;42.140;24.760;2023-05-24T12:14:32;99075.78;;;31.33;32.49
5753;BME280;2901;42.140;24.760;2023-05-24T12:16:58;99066.25;;;31.04;31.73
5753;BME280;2901;42.140;24.760;2023-05-24T12:19:29;99073.06;;;30.98;32.55
5753;BME280;2901;42.140;24.760;2023-05-24T12:21:56;99059.16;;;30.85;32.50
5753;BME280;2901;42.140;24.760;2023-05-24T12:24:23;99068.94;;;31.04;33.04
5753;BME280;2901;42.140;24.760;2023-05-24T12:26:49;99066.34;;;31.12;31.35
5753;BME280;2901;42.140;24.760;2023-05-24T12:29:15;99067.25;;;30.93;31.80
5753;BME280;2901;42.140;24.760;2023-05-24T12:31:46;99066.13;;;30.96;30.69
5753;BME280;2901;42.140;24.760;2023-05-24T12:34:13;99065.91;;;30.79;30.07
5753;BME280;2901;42.140;24.760;2023-05-24T12:36:39;99062.22;;;30.53;31.15
5753;BME280;2901;42.140;24.760;2023-05-24T12:39:17;99057.91;;;30.52;31.20
5753;BME280;2901;42.140;24.760;2023-05-24T12:41:43;99068.28;;;30.55;31.01
5753;BME280;2901;42.140;24.760;2023-05-24T12:44:10;99066.31;;;30.57;31.19
5753;BME280;2901;42.140;24.760;2023-05-24T12:46:35;99062.09;;;30.55;31.20
5753;BME280;2901;42.140;24.760;2023-05-24T12:49:01;99061.28;;;30.45;31.62
5753;BME280;2901;42.140;24.760;2023-05-24T12:51:29;99056.88;;;30.53;31.02
5753;BME280;2901;42.140;24.760;2023-05-24T12:53:54;99067.31;;;30.37;30.72
5753;BME280;2901;42.140;24.760;2023-05-24T12:56:19;99067.19;;;30.38;31.72
5753;BME280;2901;42.140;24.760;2023-05-24T12:58:46;99065.78;;;30.44;31.61
5753;BME280;2901;42.140;24.760;2023-05-24T13:01:12;99067.41;;;30.08;32.13
5753;BME280;2901;42.140;24.760;2023-05-24T13:03:37;99059.25;;;30.10;32.35
5753;BME280;2901;42.140;24.760;2023-05-24T13:06:03;99064.25;;;30.42;32.32
5753;BME280;2901;42.140;24.760;2023-05-24T13:08:29;99064.34;;;30.86;31.30
5753;BME280;2901;42.140;24.760;2023-05-24T13:10:54;99061.06;;;31.02;30.62
5753;BME280;2901;42.140;24.760;2023-05-24T13:13:21;99062.59;;;31.05;30.91
5753;BME280;2901;42.140;24.760;2023-05-24T13:15:48;99059.25;;;31.20;30.40
5753;BME280;2901;42.140;24.760;2023-05-24T13:18:13;99061.47;;;31.25;30.72
5753;BME280;2901;42.140;24.760;2023-05-24T13:20:39;99060.38;;;30.91;30.10
5753;BME280;2901;42.140;24.760;2023-05-24T13:23:04;99058.69;;;30.62;31.35
5753;BME280;2901;42.140;24.760;2023-05-24T13:25:30;99065.66;;;30.36;31.88
5753;BME280;2901;42.140;24.760;2023-05-24T13:27:55;99064.59;;;30.10;31.63